Time;durP1;ratioP1;P1;durP2;ratioP2;P2;SDS_P1;SDS_P2;PMS_P1;PMS_P2;Temp;Humidity;BMP_temperature;BMP_pressure;BME280_temperature;BME280_humidity;BME280_pressure;Samples;Min_cycle;Max_cycle;Signal;HPM_P1;HPM_P2
2021/06/06 00:00:48;;;;;;;15.02;7.90;;;;;;;;;;143736;570;46020;-63
2021/06/06 00:03:35;;;;;;;10.88;7.07;;;;;;;;;;143734;585;46022;-62
2021/06/06 00:06:22;;;;;;;10.27;6.75;;;;;;;;;;143733;610;46010;-64
2021/06/06 00:08:49;;;;;;;9.68;6.50;;;;;;;;;;143734;569;46020;-64
2021/06/06 00:11:25;;;;;;;7.70;6.00;;;;;;;;;;143737;578;46010;-63
2021/06/06 00:13:54;;;;;;;8.07;6.28;;;;;;;;;;143729;611;47022;-62
2021/06/06 00:16:28;;;;;;;7.43;6.07;;;;;;;;;;143734;576;46010;-64
2021/06/06 00:18:55;;;;;;;8.53;7.23;;;;;;;;;;143738;569;45021;-64
2021/06/06 00:21:24;;;;;;;8.80;6.15;;;;;;;;;;143738;660;46020;-63
2021/06/06 00:23:52;;;;;;;12.75;6.80;;;;;;;;;;143733;642;46036;-62
2021/06/06 00:26:19;;;;;;;9.38;6.65;;;;;;;;;;143734;577;46012;-64
2021/06/06 00:28:47;;;;;;;9.32;6.20;;;;;;;;;;143735;576;45021;-63
2021/06/06 00:31:14;;;;;;;7.60;5.57;;;;;;;;;;143737;580;46011;-64
2021/06/06 00:33:42;;;;;;;7.78;6.05;;;;;;;;;;143733;609;46021;-64
2021/06/06 00:36:10;;;;;;;9.30;6.70;;;;;;;;;;143732;639;46012;-64
2021/06/06 00:38:37;;;;;;;7.95;6.43;;;;;;;;;;143735;570;46012;-63
2021/06/06 00:41:05;;;;;;;8.68;6.75;;;;;;;;;;143737;564;46021;-62
2021/06/06 00:43:33;;;;;;;9.18;6.53;;;;;;;;;;143733;576;46022;-62
2021/06/06 00:46:01;;;;;;;14.63;7.87;;;;;;;;;;143732;583;46013;-62
2021/06/06 00:48:28;;;;;;;9.63;6.37;;;;;;;;;;143737;567;45021;-62
2021/06/06 00:50:58;;;;;;;7.07;5.85;;;;;;;;;;143739;621;45020;-64
2021/06/06 00:53:36;;;;;;;7.95;7.10;;;;;;;;;;143733;576;46022;-63
2021/06/06 00:56:06;;;;;;;7.82;6.53;;;;;;;;;;143735;591;46012;-62
2021/06/06 00:58:34;;;;;;;9.20;6.30;;;;;;;;;;143735;588;45034;-61
2021/06/06 01:01:02;;;;;;;8.15;6.57;;;;;;;;;;143739;655;45020;-63
2021/06/06 01:03:30;;;;;;;8.65;6.20;;;;;;;;;;143730;571;46023;-63
2021/06/06 01:06:11;;;;;;;7.97;6.20;;;;;;;;;;143734;665;46010;-63
2021/06/06 01:08:40;;;;;;;9.23;6.03;;;;;;;;;;143738;585;45020;-63
2021/06/06 01:11:29;;;;;;;9.70;6.45;;;;;;;;;;143738;589;46010;-63
2021/06/06 01:14:01;;;;;;;8.55;6.28;;;;;;;;;;143732;659;46022;-63
2021/06/06 01:16:43;;;;;;;7.93;6.18;;;;;;;;;;143733;685;46010;-64
2021/06/06 01:19:54;;;;;;;9.57;6.40;;;;;;;;;;143734;586;45021;-63
2021/06/06 01:22:57;;;;;;;8.65;6.70;;;;;;;;;;143737;607;46010;-63
2021/06/06 01:25:31;;;;;;;8.65;6.65;;;;;;;;;;143733;580;46021;-62
2021/06/06 01:28:14;;;;;;;9.50;6.85;;;;;;;;;;143734;593;46010;-62
2021/06/06 01:30:47;;;;;;;7.78;6.32;;;;;;;;;;143737;589;45021;-64
2021/06/06 01:33:42;;;;;;;8.35;6.57;;;;;;;;;;143737;589;46021;-63
2021/06/06 01:36:16;;;;;;;7.83;6.73;;;;;;;;;;143733;637;46020;-62
2021/06/06 01:38:51;;;;;;;9.13;6.60;;;;;;;;;;143732;590;46011;-63
2021/06/06 01:41:22;;;;;;;9.85;6.57;;;;;;;;;;143732;656;45021;-64
2021/06/06 01:43:52;;;;;;;10.88;6.35;;;;;;;;;;143737;693;46020;-63
2021/06/06 01:46:39;;;;;;;7.43;6.18;;;;;;;;;;143734;628;46021;-64
2021/06/06 01:49:09;;;;;;;9.20;6.40;;;;;;;;;;143732;588;46010;-62
2021/06/06 01:51:43;;;;;;;9.93;6.75;;;;;;;;;;143736;622;45912;-63
2021/06/06 01:54:13;;;;;;;12.60;6.87;;;;;;;;;;143736;564;46011;-63
2021/06/06 01:56:42;;;;;;;7.78;5.93;;;;;;;;;;143733;592;46020;-62
2021/06/06 01:59:37;;;;;;;6.32;5.60;;;;;;;;;;143732;617;46010;-62
2021/06/06 02:02:05;;;;;;;10.68;6.40;;;;;;;;;;143734;612;45021;-64
2021/06/06 02:04:34;;;;;;;8.73;6.20;;;;;;;;;;143738;574;46010;-62
2021/06/06 02:07:23;;;;;;;9.65;6.55;;;;;;;;;;143734;613;46020;-63
2021/06/06 02:10:07;;;;;;;8.80;6.35;;;;;;;;;;143733;588;46010;-62
2021/06/06 02:12:38;;;;;;;10.45;7.15;;;;;;;;;;143732;589;46012;-63
2021/06/06 02:15:09;;;;;;;9.40;6.37;;;;;;;;;;143737;568;46020;-63
2021/06/06 02:17:36;;;;;;;9.55;6.12;;;;;;;;;;143733;578;46021;-62
2021/06/06 02:20:09;;;;;;;10.15;6.10;;;;;;;;;;143733;566;46010;-63
2021/06/06 02:22:36;;;;;;;6.43;5.53;;;;;;;;;;143735;593;46021;-62
2021/06/06 02:25:05;;;;;;;7.28;5.97;;;;;;;;;;143739;594;45021;-62
2021/06/06 02:27:49;;;;;;;7.85;5.70;;;;;;;;;;143732;591;46022;-63
2021/06/06 02:30:25;;;;;;;7.60;5.90;;;;;;;;;;143732;573;46011;-62
2021/06/06 02:33:11;;;;;;;10.07;6.35;;;;;;;;;;143735;605;45021;-63
2021/06/06 02:35:43;;;;;;;9.27;6.57;;;;;;;;;;143738;707;46010;-64
2021/06/06 02:38:50;;;;;;;8.38;5.97;;;;;;;;;;143732;583;46022;-64
2021/06/06 02:41:33;;;;;;;9.90;6.28;;;;;;;;;;143732;600;46010;-64
2021/06/06 02:44:26;;;;;;;7.72;5.93;;;;;;;;;;143735;588;45020;-63
2021/06/06 02:46:54;;;;;;;7.75;6.40;;;;;;;;;;143738;705;46011;-64
2021/06/06 02:49:26;;;;;;;9.40;6.62;;;;;;;;;;143732;577;46020;-63
2021/06/06 02:52:11;;;;;;;8.57;6.70;;;;;;;;;;143732;569;46010;-63
2021/06/06 02:54:47;;;;;;;9.85;6.50;;;;;;;;;;143736;640;45021;-64
2021/06/06 02:57:18;;;;;;;10.80;6.47;;;;;;;;;;143737;588;46010;-63
2021/06/06 02:59:53;;;;;;;6.30;5.55;;;;;;;;;;143733;581;46020;-62
2021/06/06 03:02:26;;;;;;;8.80;5.97;;;;;;;;;;143734;613;46011;-64
2021/06/06 03:04:59;;;;;;;8.75;6.32;;;;;;;;;;143734;583;46020;-63
2021/06/06 03:07:42;;;;;;;8.85;6.78;;;;;;;;;;143739;621;45020;-64
2021/06/06 03:10:11;;;;;;;7.50;6.22;;;;;;;;;;143734;589;46023;-62
2021/06/06 03:12:38;;;;;;;8.02;6.18;;;;;;;;;;143733;598;46010;-63
2021/06/06 03:15:08;;;;;;;7.62;6.57;;;;;;;;;;143733;732;46020;-64
2021/06/06 03:17:39;;;;;;;10.45;5.80;;;;;;;;;;143737;579;46020;-62
2021/06/06 03:20:17;;;;;;;9.27;6.37;;;;;;;;;;143734;571;46075;-63
2021/06/06 03:22:46;;;;;;;6.00;5.40;;;;;;;;;;143732;565;46010;-63
2021/06/06 03:25:50;;;;;;;10.55;6.40;;;;;;;;;;143734;591;46012;-63
2021/06/06 03:28:24;;;;;;;8.40;6.68;;;;;;;;;;143737;569;46022;-62
2021/06/06 03:30:56;;;;;;;8.30;6.20;;;;;;;;;;143733;663;46019;-64
2021/06/06 03:33:53;;;;;;;9.25;6.87;;;;;;;;;;143734;576;46010;-61
2021/06/06 03:36:32;;;;;;;7.12;5.65;;;;;;;;;;143735;653;45019;-62
2021/06/06 03:39:00;;;;;;;7.78;6.37;;;;;;;;;;143739;598;45023;-63
2021/06/06 03:41:29;;;;;;;8.27;5.87;;;;;;;;;;143733;711;46020;-63
2021/06/06 03:43:56;;;;;;;8.93;6.10;;;;;;;;;;143734;585;46010;-62
2021/06/06 03:46:25;;;;;;;7.12;6.03;;;;;;;;;;143733;594;46019;-62
2021/06/06 03:48:53;;;;;;;7.35;5.62;;;;;;;;;;143738;585;46022;-62
2021/06/06 03:51:21;;;;;;;9.55;6.50;;;;;;;;;;143736;733;46018;-61
2021/06/06 03:53:49;;;;;;;9.55;7.15;;;;;;;;;;143732;669;46011;-63
2021/06/06 03:56:16;;;;;;;10.38;6.22;;;;;;;;;;143735;589;46018;-61
2021/06/06 03:58:44;;;;;;;9.18;5.47;;;;;;;;;;143737;713;46012;-60
2021/06/06 04:01:11;;;;;;;7.37;5.85;;;;;;;;;;143734;570;46019;-61
2021/06/06 04:03:39;;;;;;;14.77;6.75;;;;;;;;;;143735;743;46022;-62
2021/06/06 04:06:06;;;;;;;14.43;7.12;;;;;;;;;;143735;575;46018;-63
2021/06/06 04:08:33;;;;;;;13.52;6.90;;;;;;;;;;143739;753;45023;-61
2021/06/06 04:11:01;;;;;;;12.32;6.57;;;;;;;;;;143732;585;46020;-62
2021/06/06 04:13:29;;;;;;;9.55;5.47;;;;;;;;;;143734;677;46012;-63
2021/06/06 04:15:58;;;;;;;11.70;6.32;;;;;;;;;;143735;565;45021;-62
2021/06/06 04:18:27;;;;;;;6.45;5.32;;;;;;;;;;143738;642;46010;-61
2021/06/06 04:20:55;;;;;;;6.72;5.65;;;;;;;;;;143733;572;46018;-63
2021/06/06 04:23:23;;;;;;;10.85;6.45;;;;;;;;;;143734;600;46012;-62
2021/06/06 04:25:51;;;;;;;9.55;6.62;;;;;;;;;;143736;621;45021;-62
2021/06/06 04:28:20;;;;;;;15.40;7.43;;;;;;;;;;143738;583;46022;-63
2021/06/06 04:30:48;;;;;;;13.80;7.37;;;;;;;;;;143732;587;46020;-61
2021/06/06 04:33:16;;;;;;;8.48;6.68;;;;;;;;;;143732;576;46012;-64
2021/06/06 04:35:44;;;;;;;9.90;6.85;;;;;;;;;;143729;580;45018;-63
2021/06/06 04:38:16;;;;;;;10.30;6.45;;;;;;;;;;143730;631;46023;-63
2021/06/06 04:40:43;;;;;;;9.32;7.15;;;;;;;;;;143725;645;46020;-62
2021/06/06 04:43:11;;;;;;;11.93;6.37;;;;;;;;;;143724;592;46022;-63
2021/06/06 04:45:38;;;;;;;13.15;7.05;;;;;;;;;;143728;671;45019;-62
2021/06/06 04:48:26;;;;;;;8.75;5.87;;;;;;;;;;143731;595;46010;-61
2021/06/06 04:50:55;;;;;;;12.50;6.70;;;;;;;;;;143729;625;46018;-61
2021/06/06 04:53:22;;;;;;;15.45;6.65;;;;;;;;;;143726;635;46012;-61
2021/06/06 04:55:51;;;;;;;10.30;5.50;;;;;;;;;;143729;571;45018;-61
2021/06/06 04:58:21;;;;;;;7.32;5.28;;;;;;;;;;143729;587;46022;-61
2021/06/06 05:00:49;;;;;;;7.70;5.72;;;;;;;;;;143726;583;46019;-60
2021/06/06 05:03:18;;;;;;;9.32;5.43;;;;;;;;;;143727;598;46012;-60
2021/06/06 05:05:46;;;;;;;12.95;5.85;;;;;;;;;;143725;596;46012;-60
2021/06/06 05:08:14;;;;;;;8.05;5.75;;;;;;;;;;143732;589;45023;-60
2021/06/06 05:10:43;;;;;;;14.15;6.43;;;;;;;;;;143727;621;46018;-61
2021/06/06 05:13:11;;;;;;;7.80;5.25;;;;;;;;;;143728;619;46012;-61
2021/06/06 05:15:39;;;;;;;9.30;5.50;;;;;;;;;;143731;581;45019;-62
2021/06/06 05:18:07;;;;;;;9.77;5.37;;;;;;;;;;143733;613;45022;-61
2021/06/06 05:20:39;;;;;;;9.40;5.93;;;;;;;;;;143726;580;46020;-61
2021/06/06 05:23:07;;;;;;;13.48;6.37;;;;;;;;;;143725;588;46013;-61
2021/06/06 05:25:37;;;;;;;15.15;6.30;;;;;;;;;;143729;570;45018;-60
2021/06/06 05:28:06;;;;;;;9.93;6.28;;;;;;;;;;143731;588;46010;-59
2021/06/06 05:30:35;;;;;;;15.48;6.57;;;;;;;;;;143730;657;46019;-59
2021/06/06 05:33:03;;;;;;;12.13;5.80;;;;;;;;;;143726;565;46012;-59
2021/06/06 05:35:32;;;;;;;11.40;5.72;;;;;;;;;;143728;581;45018;-60
2021/06/06 05:37:59;;;;;;;9.50;5.45;;;;;;;;;;143731;569;46022;-59
2021/06/06 05:40:28;;;;;;;9.55;5.50;;;;;;;;;;143727;612;46018;-59
2021/06/06 05:42:55;;;;;;;9.80;5.75;;;;;;;;;;143726;588;46012;-60
2021/06/06 05:45:23;;;;;;;8.40;5.47;;;;;;;;;;143730;605;45019;-60
2021/06/06 05:47:52;;;;;;;17.10;5.70;;;;;;;;;;143731;576;46023;-60
2021/06/06 05:50:22;;;;;;;11.02;6.22;;;;;;;;;;143725;656;46050;-60
2021/06/06 05:52:49;;;;;;;13.95;6.78;;;;;;;;;;143724;585;46013;-60
2021/06/06 05:55:18;;;;;;;15.02;6.10;;;;;;;;;;143731;575;45018;-60
2021/06/06 05:57:45;;;;;;;13.52;6.03;;;;;;;;;;143732;621;46012;-60
2021/06/06 06:00:17;;;;;;;13.90;6.45;;;;;;;;;;143726;671;46020;-60
2021/06/06 06:02:44;;;;;;;19.75;6.22;;;;;;;;;;143727;592;46012;-60
2021/06/06 06:05:12;;;;;;;11.82;5.50;;;;;;;;;;143729;589;45018;-60
2021/06/06 06:07:39;;;;;;;12.13;5.78;;;;;;;;;;143732;576;46013;-60
2021/06/06 06:10:08;;;;;;;8.45;5.07;;;;;;;;;;143727;573;46018;-60
2021/06/06 06:12:36;;;;;;;13.60;5.32;;;;;;;;;;143726;603;46012;-60
2021/06/06 06:15:06;;;;;;;7.00;4.90;;;;;;;;;;143729;611;45914;-60
2021/06/06 06:17:33;;;;;;;11.95;6.43;;;;;;;;;;143732;616;46022;-60
2021/06/06 06:20:00;;;;;;;9.07;5.65;;;;;;;;;;143727;577;47018;-61
2021/06/06 06:22:27;;;;;;;8.02;5.35;;;;;;;;;;143727;577;46012;-60
2021/06/06 06:24:54;;;;;;;9.65;5.93;;;;;;;;;;143730;594;45018;-60
2021/06/06 06:27:21;;;;;;;12.23;7.45;;;;;;;;;;143730;603;46022;-59
2021/06/06 06:29:48;;;;;;;10.98;7.55;;;;;;;;;;143727;601;46019;-60
2021/06/06 06:32:15;;;;;;;9.05;5.62;;;;;;;;;;143725;656;46023;-60
2021/06/06 06:34:42;;;;;;;11.00;8.13;;;;;;;;;;143730;596;45018;-60
2021/06/06 06:37:09;;;;;;;9.00;5.70;;;;;;;;;;143730;589;46023;-60
2021/06/06 06:39:36;;;;;;;9.40;4.70;;;;;;;;;;143726;589;47018;-60
2021/06/06 06:42:03;;;;;;;13.43;6.75;;;;;;;;;;143728;566;46012;-60
2021/06/06 06:44:30;;;;;;;8.25;4.97;;;;;;;;;;143730;570;45019;-60
2021/06/06 06:46:57;;;;;;;8.93;5.60;;;;;;;;;;143732;569;46012;-60
2021/06/06 06:49:24;;;;;;;8.57;5.15;;;;;;;;;;143726;750;46020;-60
2021/06/06 06:51:52;;;;;;;10.43;4.72;;;;;;;;;;143726;603;46037;-60
2021/06/06 06:54:19;;;;;;;7.00;5.20;;;;;;;;;;143730;581;45019;-60
2021/06/06 06:56:46;;;;;;;8.73;5.95;;;;;;;;;;143733;585;46022;-60
2021/06/06 06:59:13;;;;;;;7.10;5.25;;;;;;;;;;143728;564;46019;-59
2021/06/06 07:01:40;;;;;;;6.50;4.68;;;;;;;;;;143729;592;46010;-61
2021/06/06 07:04:07;;;;;;;12.27;5.78;;;;;;;;;;143731;656;45018;-60
2021/06/06 07:06:34;;;;;;;6.37;4.78;;;;;;;;;;143732;583;46012;-60
2021/06/06 07:09:01;;;;;;;9.73;5.25;;;;;;;;;;143729;565;46019;-59
2021/06/06 07:11:28;;;;;;;10.95;5.40;;;;;;;;;;143727;580;46010;-59
2021/06/06 07:13:55;;;;;;;12.45;6.22;;;;;;;;;;143729;578;45019;-60
2021/06/06 07:16:22;;;;;;;8.52;6.18;;;;;;;;;;143733;593;46023;-60
2021/06/06 07:18:50;;;;;;;17.25;6.50;;;;;;;;;;143729;629;46018;-60
2021/06/06 07:21:21;;;;;;;14.15;6.93;;;;;;;;;;143726;594;46011;-60
2021/06/06 07:23:49;;;;;;;15.32;7.37;;;;;;;;;;143732;575;45018;-59
2021/06/06 07:26:46;;;;;;;15.35;8.20;;;;;;;;;;143733;582;46012;-60
2021/06/06 07:29:15;;;;;;;14.73;6.50;;;;;;;;;;143730;573;46019;-60
2021/06/06 07:31:44;;;;;;;13.07;7.95;;;;;;;;;;143728;631;46010;-60
2021/06/06 07:34:13;;;;;;;10.20;7.03;;;;;;;;;;143731;573;45018;-61
2021/06/06 07:36:41;;;;;;;14.07;8.38;;;;;;;;;;143732;618;46013;-61
2021/06/06 07:39:08;;;;;;;18.75;9.00;;;;;;;;;;143728;585;46020;-61
2021/06/06 07:41:35;;;;;;;13.45;9.25;;;;;;;;;;143728;589;46010;-60
2021/06/06 07:44:02;;;;;;;16.42;9.85;;;;;;;;;;143730;612;45019;-60
2021/06/06 07:46:29;;;;;;;13.18;8.25;;;;;;;;;;143732;617;46012;-60
2021/06/06 07:48:56;;;;;;;20.27;10.68;;;;;;;;;;143726;589;46020;-60
2021/06/06 07:51:23;;;;;;;16.00;8.88;;;;;;;;;;143729;600;46011;-60
2021/06/06 07:53:54;;;;;;;18.52;8.15;;;;;;;;;;143730;613;45019;-60
2021/06/06 07:56:21;;;;;;;12.20;7.22;;;;;;;;;;143734;577;45022;-60
2021/06/06 07:58:48;;;;;;;12.45;7.53;;;;;;;;;;143729;592;46019;-60
2021/06/06 08:01:15;;;;;;;13.15;8.02;;;;;;;;;;143729;577;46010;-60
2021/06/06 08:03:42;;;;;;;11.80;5.97;;;;;;;;;;143731;575;45018;-61
2021/06/06 08:06:12;;;;;;;12.45;6.78;;;;;;;;;;143733;597;46012;-60
2021/06/06 08:08:39;;;;;;;13.52;7.18;;;;;;;;;;143728;570;46019;-60
2021/06/06 08:11:08;;;;;;;10.07;8.18;;;;;;;;;;143729;597;46010;-59
2021/06/06 08:13:35;;;;;;;11.50;6.70;;;;;;;;;;143731;571;45019;-59
2021/06/06 08:16:03;;;;;;;9.68;6.90;;;;;;;;;;143732;585;46023;-58
2021/06/06 08:18:36;;;;;;;11.80;7.28;;;;;;;;;;143726;595;47018;-58
2021/06/06 08:21:28;;;;;;;18.40;6.37;;;;;;;;;;143727;562;46010;-58
2021/06/06 08:23:55;;;;;;;18.45;7.25;;;;;;;;;;143730;604;45018;-59
2021/06/06 08:26:25;;;;;;;15.25;6.93;;;;;;;;;;143731;586;46022;-59
2021/06/06 08:28:54;;;;;;;14.73;6.75;;;;;;;;;;143729;589;46020;-58
2021/06/06 08:31:24;;;;;;;10.48;6.25;;;;;;;;;;143728;594;46010;-58
2021/06/06 08:33:51;;;;;;;11.10;6.62;;;;;;;;;;143731;575;45018;-59
2021/06/06 08:36:28;;;;;;;9.85;6.10;;;;;;;;;;143732;598;46013;-59
2021/06/06 08:38:57;;;;;;;14.15;6.87;;;;;;;;;;143726;583;47010;-58
2021/06/06 08:41:55;;;;;;;14.73;7.32;;;;;;;;;;143729;642;46010;-59
2021/06/06 08:44:30;;;;;;;14.05;7.05;;;;;;;;;;143731;603;45021;-58
2021/06/06 08:47:18;;;;;;;12.40;6.43;;;;;;;;;;143732;606;46012;-59
2021/06/06 08:49:53;;;;;;;13.02;6.70;;;;;;;;;;143727;626;46020;-59
2021/06/06 08:52:56;;;;;;;15.73;6.37;;;;;;;;;;143726;660;46030;-59
2021/06/06 08:55:43;;;;;;;10.75;6.72;;;;;;;;;;143731;612;45018;-59
2021/06/06 08:58:45;;;;;;;11.18;6.78;;;;;;;;;;143733;577;46022;-59
2021/06/06 09:01:29;;;;;;;10.65;6.95;;;;;;;;;;143728;579;46018;-59
2021/06/06 09:04:00;;;;;;;12.57;6.10;;;;;;;;;;143726;572;47022;-59
2021/06/06 09:07:07;;;;;;;13.30;7.07;;;;;;;;;;143731;569;45019;-59
2021/06/06 09:09:39;;;;;;;16.73;7.20;;;;;;;;;;143734;572;45034;-58
2021/06/06 09:12:09;;;;;;;10.38;6.82;;;;;;;;;;143727;579;46020;-58
2021/06/06 09:14:37;;;;;;;12.40;6.97;;;;;;;;;;143724;596;48023;-57
2021/06/06 09:17:15;;;;;;;12.13;7.07;;;;;;;;;;143730;586;45018;-58
2021/06/06 09:19:56;;;;;;;10.13;7.45;;;;;;;;;;143733;656;46012;-58
2021/06/06 09:22:52;;;;;;;17.05;6.82;;;;;;;;;;143727;587;46021;-58
2021/06/06 09:25:28;;;;;;;11.25;6.50;;;;;;;;;;143728;586;46010;-58
2021/06/06 09:28:25;;;;;;;12.02;6.72;;;;;;;;;;143731;577;45019;-57
2021/06/06 09:31:05;;;;;;;14.10;7.30;;;;;;;;;;143733;584;46023;-58
2021/06/06 09:34:05;;;;;;;12.85;6.97;;;;;;;;;;143728;582;47018;-58
2021/06/06 09:36:41;;;;;;;16.45;7.05;;;;;;;;;;143727;581;46023;-58
2021/06/06 09:39:26;;;;;;;18.08;7.57;;;;;;;;;;143731;591;45018;-58
2021/06/06 09:41:59;;;;;;;11.12;6.53;;;;;;;;;;143732;612;46022;-58
2021/06/06 09:44:30;;;;;;;20.83;6.93;;;;;;;;;;143726;590;47018;-58
2021/06/06 09:47:21;;;;;;;17.33;6.95;;;;;;;;;;143729;569;46012;-58
2021/06/06 09:49:48;;;;;;;14.18;6.43;;;;;;;;;;143729;639;46014;-58
2021/06/06 09:52:40;;;;;;;9.50;5.90;;;;;;;;;;143734;569;45023;-59
2021/06/06 09:55:33;;;;;;;15.02;6.82;;;;;;;;;;143728;575;46020;-58
2021/06/06 09:58:13;;;;;;;11.15;6.90;;;;;;;;;;143728;695;46013;-57
2021/06/06 10:00:52;;;;;;;13.70;6.97;;;;;;;;;;143730;577;45018;-58
2021/06/06 10:03:49;;;;;;;11.52;5.78;;;;;;;;;;143730;600;46022;-58
2021/06/06 10:06:30;;;;;;;8.77;5.70;;;;;;;;;;143727;582;47017;-57
2021/06/06 10:09:11;;;;;;;10.25;6.00;;;;;;;;;;143728;590;46008;-58
2021/06/06 10:12:12;;;;;;;13.05;6.10;;;;;;;;;;143731;595;45016;-59
2021/06/06 10:15:03;;;;;;;12.15;5.87;;;;;;;;;;143733;602;46020;-59
2021/06/06 10:17:45;;;;;;;11.02;6.37;;;;;;;;;;143725;644;47016;-59
2021/06/06 10:20:31;;;;;;;12.90;6.47;;;;;;;;;;143729;630;46008;-58
2021/06/06 10:23:16;;;;;;;10.98;5.85;;;;;;;;;;143731;619;45016;-59
2021/06/06 10:25:58;;;;;;;14.40;6.18;;;;;;;;;;143732;563;46010;-59
2021/06/06 10:28:40;;;;;;;13.13;6.00;;;;;;;;;;143727;613;46018;-59
2021/06/06 10:31:27;;;;;;;11.82;5.45;;;;;;;;;;143728;628;46008;-58
2021/06/06 10:34:16;;;;;;;17.42;6.18;;;;;;;;;;143730;609;45016;-59
2021/06/06 10:36:43;;;;;;;13.38;6.12;;;;;;;;;;143732;613;46012;-59
2021/06/06 10:39:22;;;;;;;14.45;5.70;;;;;;;;;;143728;592;46020;-58
2021/06/06 10:42:09;;;;;;;10.18;5.85;;;;;;;;;;143729;587;46011;-59
2021/06/06 10:45:28;;;;;;;11.32;5.87;;;;;;;;;;143728;592;45909;-59
2021/06/06 10:48:32;;;;;;;9.13;5.32;;;;;;;;;;143732;576;46022;-60
2021/06/06 10:51:12;;;;;;;11.48;8.82;;;;;;;;;;143727;571;46022;-59
2021/06/06 10:53:51;;;;;;;21.52;14.60;;;;;;;;;;143728;589;46010;-61
2021/06/06 10:57:08;;;;;;;11.57;8.60;;;;;;;;;;143730;573;45018;-59
2021/06/06 11:00:09;;;;;;;10.55;7.90;;;;;;;;;;143732;649;46012;-58
2021/06/06 11:02:56;;;;;;;15.23;8.52;;;;;;;;;;143725;569;47018;-58
2021/06/06 11:05:47;;;;;;;12.35;7.18;;;;;;;;;;143727;620;46010;-60
2021/06/06 11:08:37;;;;;;;11.48;6.80;;;;;;;;;;143731;575;45020;-60
2021/06/06 11:11:42;;;;;;;10.88;7.20;;;;;;;;;;143734;567;45022;-60
2021/06/06 11:14:30;;;;;;;11.60;7.32;;;;;;;;;;143730;633;46018;-60
2021/06/06 11:17:08;;;;;;;10.40;6.65;;;;;;;;;;143727;626;46010;-60
2021/06/06 11:19:35;;;;;;;7.53;5.90;;;;;;;;;;143730;619;46014;-60
2021/06/06 11:22:29;;;;;;;10.05;6.72;;;;;;;;;;143733;573;46012;-60
2021/06/06 11:24:56;;;;;;;15.23;6.80;;;;;;;;;;143727;566;46022;-60
2021/06/06 11:27:31;;;;;;;9.00;6.40;;;;;;;;;;143728;566;46011;-60
2021/06/06 11:30:35;;;;;;;10.88;6.60;;;;;;;;;;143730;587;45018;-60
2021/06/06 11:33:08;;;;;;;9.88;6.30;;;;;;;;;;143731;582;46012;-61
2021/06/06 11:35:49;;;;;;;7.78;5.70;;;;;;;;;;143728;594;46021;-60
2021/06/06 11:38:46;;;;;;;9.82;6.03;;;;;;;;;;143726;585;46010;-60
2021/06/06 11:41:31;;;;;;;10.02;5.75;;;;;;;;;;143729;585;45020;-60
2021/06/06 11:44:21;;;;;;;7.97;5.95;;;;;;;;;;143731;577;46012;-60
2021/06/06 11:47:14;;;;;;;9.95;5.70;;;;;;;;;;143727;633;46018;-60
2021/06/06 11:49:58;;;;;;;10.60;5.43;;;;;;;;;;143726;593;46010;-60
2021/06/06 11:53:02;;;;;;;9.65;5.75;;;;;;;;;;143727;606;45018;-59
2021/06/06 11:55:34;;;;;;;8.95;5.62;;;;;;;;;;143734;594;45024;-59
2021/06/06 11:58:32;;;;;;;7.87;5.40;;;;;;;;;;143725;608;46021;-60
2021/06/06 12:01:24;;;;;;;8.55;5.25;;;;;;;;;;143726;559;46010;-60
2021/06/06 12:03:53;;;;;;;10.63;5.35;;;;;;;;;;143729;569;45019;-60
2021/06/06 12:06:26;;;;;;;8.68;5.87;;;;;;;;;;143730;566;46012;-60
2021/06/06 12:08:54;;;;;;;;;;;;;;;;;;143730;980;46020;-60
2021/06/06 12:11:34;;;;;;;9.13;5.55;;;;;;;;;;143736;599;46011;-60
2021/06/06 12:14:16;;;;;;;8.15;5.30;;;;;;;;;;143724;630;46908;-60
2021/06/06 12:16:54;;;;;;;9.43;4.93;;;;;;;;;;143732;564;45022;-61
2021/06/06 12:19:36;;;;;;;7.95;5.15;;;;;;;;;;143727;576;46019;-60
2021/06/06 12:22:15;;;;;;;9.02;5.40;;;;;;;;;;143726;581;46010;-60
2021/06/06 12:24:42;;;;;;;8.35;5.78;;;;;;;;;;143726;570;45909;-60
2021/06/06 12:27:21;;;;;;;9.05;5.43;;;;;;;;;;143731;584;46010;-60
2021/06/06 12:29:57;;;;;;;6.50;4.95;;;;;;;;;;143726;594;46018;-60
2021/06/06 12:32:34;;;;;;;7.65;5.00;;;;;;;;;;143724;593;46010;-60
2021/06/06 12:35:16;;;;;;;13.40;5.37;;;;;;;;;;143729;606;45019;-60
2021/06/06 12:37:47;;;;;;;10.80;4.78;;;;;;;;;;143729;566;46010;-60
2021/06/06 12:40:17;;;;;;;9.40;4.75;;;;;;;;;;143725;577;46018;-60
2021/06/06 12:42:46;;;;;;;9.07;5.30;;;;;;;;;;143722;595;46023;-60
2021/06/06 12:45:17;;;;;;;8.68;4.55;;;;;;;;;;143730;592;45018;-60
2021/06/06 12:47:49;;;;;;;8.43;5.60;;;;;;;;;;143729;655;46022;-61
2021/06/06 12:50:28;;;;;;;9.90;5.07;;;;;;;;;;143726;611;46019;-60
2021/06/06 12:52:59;;;;;;;8.93;5.28;;;;;;;;;;143728;572;46010;-60
2021/06/06 12:55:33;;;;;;;11.02;5.28;;;;;;;;;;143729;587;45018;-61
2021/06/06 12:58:20;;;;;;;9.50;5.25;;;;;;;;;;143729;585;46010;-61
2021/06/06 13:00:50;;;;;;;8.73;5.28;;;;;;;;;;143727;601;46018;-61
2021/06/06 13:03:42;;;;;;;9.05;4.97;;;;;;;;;;143727;589;46011;-60
2021/06/06 13:06:36;;;;;;;5.78;4.65;;;;;;;;;;143728;609;46018;-60
2021/06/06 13:09:19;;;;;;;7.40;4.75;;;;;;;;;;143730;569;46022;-61
2021/06/06 13:11:52;;;;;;;8.00;5.12;;;;;;;;;;143727;674;46020;-60
2021/06/06 13:14:37;;;;;;;10.27;4.65;;;;;;;;;;143726;582;46010;-61
2021/06/06 13:17:23;;;;;;;10.75;4.47;;;;;;;;;;143729;678;45018;-60
2021/06/06 13:19:50;;;;;;;7.78;4.90;;;;;;;;;;143730;589;46010;-61
2021/06/06 13:22:27;;;;;;;7.22;4.65;;;;;;;;;;143725;606;46020;-61
2021/06/06 13:24:54;;;;;;;8.48;4.70;;;;;;;;;;143724;570;46010;-61
2021/06/06 13:27:34;;;;;;;8.23;5.00;;;;;;;;;;143729;645;45019;-60
2021/06/06 13:30:30;;;;;;;9.35;5.50;;;;;;;;;;143731;597;46022;-60
2021/06/06 13:33:01;;;;;;;7.22;4.50;;;;;;;;;;143726;655;46019;-60
2021/06/06 13:35:29;;;;;;;7.53;5.05;;;;;;;;;;143726;651;46010;-60
2021/06/06 13:37:56;;;;;;;9.23;4.78;;;;;;;;;;143730;692;45018;-60
2021/06/06 13:40:28;;;;;;;8.35;4.62;;;;;;;;;;143732;564;45022;-61
2021/06/06 13:42:57;;;;;;;5.95;4.87;;;;;;;;;;143725;612;46021;-60
2021/06/06 13:45:26;;;;;;;7.87;4.62;;;;;;;;;;143727;623;46010;-60
2021/06/06 13:47:54;;;;;;;7.20;4.90;;;;;;;;;;143729;592;45018;-60
2021/06/06 13:50:23;;;;;;;6.57;4.57;;;;;;;;;;143731;564;46023;-60
2021/06/06 13:52:51;;;;;;;7.65;4.95;;;;;;;;;;143725;662;46020;-60
2021/06/06 13:55:21;;;;;;;6.87;4.37;;;;;;;;;;143724;596;46010;-60
2021/06/06 13:57:48;;;;;;;5.75;4.45;;;;;;;;;;143729;572;45019;-60
2021/06/06 14:00:19;;;;;;;8.57;4.90;;;;;;;;;;143730;576;46010;-60
2021/06/06 14:02:49;;;;;;;6.78;4.80;;;;;;;;;;143725;618;46020;-60
2021/06/06 14:05:17;;;;;;;6.70;4.28;;;;;;;;;;143727;603;46010;-60
2021/06/06 14:07:45;;;;;;;7.57;4.80;;;;;;;;;;143728;579;46018;-61
2021/06/06 14:10:15;;;;;;;14.85;4.40;;;;;;;;;;143729;580;46011;-60
2021/06/06 14:12:43;;;;;;;8.52;4.62;;;;;;;;;;143725;675;47020;-60
2021/06/06 14:15:15;;;;;;;6.85;4.15;;;;;;;;;;143726;615;46010;-60
2021/06/06 14:17:42;;;;;;;7.87;4.68;;;;;;;;;;143728;666;45021;-60
2021/06/06 14:20:11;;;;;;;7.57;4.68;;;;;;;;;;143731;584;46021;-61
2021/06/06 14:22:38;;;;;;;5.72;4.60;;;;;;;;;;143722;650;47022;-61
2021/06/06 14:25:11;;;;;;;6.05;4.62;;;;;;;;;;143727;635;46011;-61
2021/06/06 14:27:38;;;;;;;6.90;4.68;;;;;;;;;;143728;576;45021;-60
2021/06/06 14:30:07;;;;;;;10.60;5.10;;;;;;;;;;143727;624;46020;-61
2021/06/06 14:32:34;;;;;;;7.37;4.68;;;;;;;;;;143726;611;46021;-62
2021/06/06 14:35:02;;;;;;;11.35;5.90;;;;;;;;;;143723;580;46021;-61
2021/06/06 14:37:29;;;;;;;10.38;4.62;;;;;;;;;;143727;633;45911;-61
2021/06/06 14:39:57;;;;;;;8.70;5.47;;;;;;;;;;143730;605;46011;-61
2021/06/06 14:42:25;;;;;;;8.00;5.15;;;;;;;;;;143724;643;47023;-62
2021/06/06 14:44:52;;;;;;;10.80;5.30;;;;;;;;;;143724;698;46038;-62
2021/06/06 14:47:19;;;;;;;13.23;5.97;;;;;;;;;;143728;579;45018;-61
2021/06/06 14:49:47;;;;;;;10.52;6.30;;;;;;;;;;143730;564;46025;-61
2021/06/06 14:52:15;;;;;;;13.05;5.25;;;;;;;;;;143725;669;46047;-61
2021/06/06 14:54:44;;;;;;;7.80;4.95;;;;;;;;;;143728;684;46010;-61
2021/06/06 14:57:12;;;;;;;6.70;4.70;;;;;;;;;;143730;578;45019;-61
2021/06/06 14:59:39;;;;;;;7.03;5.00;;;;;;;;;;143729;636;46022;-61
2021/06/06 15:02:10;;;;;;;11.77;5.10;;;;;;;;;;143722;574;47020;-62
2021/06/06 15:04:37;;;;;;;8.75;5.45;;;;;;;;;;143726;569;46010;-61
2021/06/06 15:07:04;;;;;;;7.85;5.28;;;;;;;;;;143729;583;45018;-62
2021/06/06 15:09:31;;;;;;;7.82;5.07;;;;;;;;;;143732;594;45023;-62
2021/06/06 15:12:00;;;;;;;10.82;5.97;;;;;;;;;;143726;609;46021;-62
2021/06/06 15:14:28;;;;;;;8.65;5.32;;;;;;;;;;143727;585;46010;-62
2021/06/06 15:16:55;;;;;;;7.90;4.50;;;;;;;;;;143728;589;45019;-62
2021/06/06 15:19:22;;;;;;;10.73;5.93;;;;;;;;;;143728;585;46023;-61
2021/06/06 15:21:49;;;;;;;7.57;5.30;;;;;;;;;;143726;640;46018;-62